Time;durP1;ratioP1;P1;durP2;ratioP2;P2;SDS_P1;SDS_P2;PMS_P1;PMS_P2;Temp;Humidity;BMP_temperature;BMP_pressure;BME280_temperature;BME280_humidity;BME280_pressure;Samples;Min_cycle;Max_cycle;Signal;HPM_P1;HPM_P2
2022/03/31 00:02:09;;;;;;;6.32;5.72;;;;;;;9.68;48.25;100039.50;5058445;28;20159;-60
2022/03/31 00:04:40;;;;;;;6.78;5.47;;;;;;;9.68;48.47;100038.66;5052113;28;20466;-60
2022/03/31 00:07:08;;;;;;;6.15;5.40;;;;;;;9.64;49.08;100032.81;5037965;28;20179;-60
2022/03/31 00:09:33;;;;;;;6.13;5.07;;;;;;;9.65;48.58;100044.75;5048581;28;20194;-60
2022/03/31 00:11:59;;;;;;;6.60;5.90;;;;;;;9.66;48.19;100044.47;5047874;28;20505;-60
2022/03/31 00:14:26;;;;;;;7.50;5.70;;;;;;;9.62;48.54;100034.19;5049997;28;20033;-60
2022/03/31 00:16:51;;;;;;;6.53;5.93;;;;;;;9.61;48.60;100046.38;5049611;28;20037;-60
2022/03/31 00:19:16;;;;;;;6.70;5.60;;;;;;;9.58;48.99;100048.56;5050167;28;20491;-60
2022/03/31 00:22:28;;;;;;;6.35;5.70;;;;;;;9.64;49.13;100054.16;5042097;28;20052;-61
2022/03/31 00:24:54;;;;;;;6.18;5.57;;;;;;;9.56;49.11;100056.31;5040429;28;20388;-60
2022/03/31 00:27:19;;;;;;;6.68;6.00;;;;;;;9.55;48.65;100057.44;5032616;28;20022;-60
2022/03/31 00:29:44;;;;;;;6.80;6.10;;;;;;;9.51;49.50;100047.97;5031880;28;20103;-60
2022/03/31 00:32:10;;;;;;;6.93;5.78;;;;;;;9.52;49.13;100038.56;5042412;28;20480;-60
2022/03/31 00:34:35;;;;;;;7.60;6.07;;;;;;;9.48;49.31;100042.97;5050244;28;20037;-60
2022/03/31 00:37:01;;;;;;;7.07;6.32;;;;;;;9.44;49.51;100041.81;5048886;28;20029;-61
2022/03/31 00:39:31;;;;;;;11.88;7.07;;;;;;;9.44;49.59;100033.53;5040894;28;20033;-60
2022/03/31 00:41:58;;;;;;;8.55;6.93;;;;;;;9.42;48.95;100035.69;5030121;28;20072;-60
2022/03/31 00:44:24;;;;;;;8.10;7.22;;;;;;;9.41;49.38;100034.03;5041835;28;20108;-60
2022/03/31 00:46:52;;;;;;;9.80;7.47;;;;;;;9.37;49.47;100037.59;5039905;28;20105;-60
2022/03/31 00:49:22;;;;;;;10.20;7.72;;;;;;;9.36;49.70;100035.94;5034248;28;20086;-61
2022/03/31 00:51:48;;;;;;;9.63;7.93;;;;;;;9.39;49.81;100041.75;5043088;28;20028;-61
2022/03/31 00:54:16;;;;;;;8.60;7.43;;;;;;;9.43;49.76;100039.31;5050545;28;20071;-60
2022/03/31 00:56:42;;;;;;;9.60;7.72;;;;;;;9.40;49.67;100043.47;5053286;28;20104;-61
2022/03/31 00:59:09;;;;;;;8.68;7.78;;;;;;;9.42;49.71;100040.41;5049636;28;20496;-60
2022/03/31 01:01:39;;;;;;;12.90;8.93;;;;;;;9.36;49.80;100036.78;5050193;28;20488;-60
2022/03/31 01:04:06;;;;;;;10.13;8.55;;;;;;;9.33;49.96;100034.53;5034839;28;20136;-60
2022/03/31 01:06:31;;;;;;;10.13;8.60;;;;;;;9.36;49.63;100028.47;5034267;28;20108;-60
2022/03/31 01:08:57;;;;;;;10.77;8.48;;;;;;;9.35;49.69;100026.78;5039457;28;20021;-60
2022/03/31 01:11:23;;;;;;;12.88;8.85;;;;;;;9.42;49.99;100032.09;5052399;28;20408;-60
2022/03/31 01:13:51;;;;;;;9.10;8.05;;;;;;;9.45;49.97;100026.88;5052414;28;20849;-60
2022/03/31 01:16:17;;;;;;;12.90;10.18;;;;;;;9.44;50.17;100021.59;5051121;28;20021;-60
2022/03/31 01:18:45;;;;;;;13.57;8.93;;;;;;;9.43;50.25;100017.16;5043658;28;20033;-60
2022/03/31 01:21:10;;;;;;;10.90;9.32;;;;;;;9.41;49.73;100022.97;5050125;28;20021;-61
2022/03/31 01:23:39;;;;;;;10.48;8.55;;;;;;;9.38;49.89;100015.19;5052281;28;20024;-60
2022/03/31 01:26:10;;;;;;;9.18;8.20;;;;;;;9.41;50.02;100011.88;5050937;28;20594;-60
2022/03/31 01:28:40;;;;;;;10.70;8.00;;;;;;;9.41;49.97;100014.66;5048517;28;20388;-60
2022/03/31 01:31:06;;;;;;;11.65;8.77;;;;;;;9.36;50.62;100003.53;5037560;28;20468;-60
2022/03/31 01:33:32;;;;;;;9.98;8.43;;;;;;;9.35;49.86;100001.84;5052908;28;20029;-60
2022/03/31 01:35:57;;;;;;;9.95;8.57;;;;;;;9.29;50.22;100005.69;5039384;28;20520;-60
2022/03/31 01:38:22;;;;;;;11.85;8.60;;;;;;;9.33;49.87;100007.66;5033272;28;20037;-60
2022/03/31 01:40:48;;;;;;;10.20;9.07;;;;;;;9.19;51.21;100006.44;5042176;28;20036;-60
2022/03/31 01:43:14;;;;;;;11.57;9.13;;;;;;;9.23;51.02;100006.75;5053381;28;20032;-60
2022/03/31 01:45:40;;;;;;;11.07;9.80;;;;;;;9.20;50.49;100001.75;5042618;28;20036;-60
2022/03/31 01:48:06;;;;;;;11.65;9.55;;;;;;;9.17;51.16;100002.28;5065623;28;20029;-60
2022/03/31 01:50:31;;;;;;;13.45;9.68;;;;;;;9.15;51.23;99998.94;5049891;28;20029;-60
2022/03/31 01:52:56;;;;;;;11.15;9.75;;;;;;;9.05;51.43;99995.00;5051641;28;20036;-60
2022/03/31 01:55:22;;;;;;;12.13;10.15;;;;;;;9.04;51.30;99993.34;5051886;28;20056;-60
2022/03/31 01:57:47;;;;;;;13.65;9.80;;;;;;;9.12;51.62;99991.16;5053207;28;20025;-60
2022/03/31 02:00:13;;;;;;;14.95;10.07;;;;;;;9.13;52.06;99988.13;5048071;28;20044;-60
2022/03/31 02:02:40;;;;;;;14.75;10.80;;;;;;;9.12;52.36;99988.38;5052711;28;20023;-60
2022/03/31 02:05:07;;;;;;;13.80;11.10;;;;;;;9.13;51.96;99987.31;5037554;28;20546;-60
2022/03/31 02:07:36;;;;;;;16.77;11.38;;;;;;;9.10;52.62;99983.13;5044188;28;20258;-60
2022/03/31 02:10:03;;;;;;;16.27;12.15;;;;;;;9.11;52.46;99979.25;5050056;28;20035;-60
2022/03/31 02:12:29;;;;;;;14.23;11.10;;;;;;;9.06;52.62;99982.81;5050811;28;20116;-60
2022/03/31 02:14:54;;;;;;;14.15;11.80;;;;;;;9.00;53.31;99975.59;5037518;28;20591;-60
2022/03/31 02:17:19;;;;;;;15.88;11.98;;;;;;;9.04;53.33;99973.97;5044528;28;20036;-60
2022/03/31 02:19:45;;;;;;;13.75;11.35;;;;;;;8.96;53.30;99968.91;5032665;28;20106;-60
2022/03/31 02:22:10;;;;;;;18.13;12.20;;;;;;;8.97;53.21;99961.44;5034003;28;20060;-60
2022/03/31 02:24:35;;;;;;;17.20;12.52;;;;;;;8.94;53.36;99961.97;5034801;28;20111;-61
2022/03/31 02:27:02;;;;;;;14.48;11.43;;;;;;;8.93;53.67;99966.66;5049763;28;20392;-60
2022/03/31 02:29:30;;;;;;;15.60;12.32;;;;;;;8.92;53.58;99962.22;5049715;28;20037;-60
2022/03/31 02:31:56;;;;;;;17.08;12.80;;;;;;;8.89;53.57;99967.47;5039612;28;20074;-60
2022/03/31 02:34:22;;;;;;;14.07;11.38;;;;;;;8.90;53.78;99972.72;5032313;28;20037;-60
2022/03/31 02:36:47;;;;;;;13.98;10.93;;;;;;;8.91;53.51;99963.31;5033773;28;20040;-60
2022/03/31 02:39:12;;;;;;;12.57;10.43;;;;;;;8.83;53.50;99974.88;5050616;28;20025;-60
2022/03/31 02:41:38;;;;;;;13.40;10.93;;;;;;;8.84;53.66;99960.78;5049783;28;20568;-60
2022/03/31 02:44:06;;;;;;;14.45;11.02;;;;;;;8.79;53.84;99957.13;5052894;28;20025;-60
2022/03/31 02:46:32;;;;;;;13.23;10.30;;;;;;;8.77;54.01;99953.81;5051011;28;20036;-60
2022/03/31 02:48:58;;;;;;;14.00;10.45;;;;;;;8.73;54.84;99958.19;5040302;28;20049;-60
2022/03/31 02:51:24;;;;;;;11.35;9.18;;;;;;;8.69;55.54;99957.03;5043225;28;20370;-60
2022/03/31 02:56:34;;;;;;;10.95;8.13;;;;;;;8.68;55.69;99952.59;5050622;28;20055;-60
2022/03/31 02:59:00;;;;;;;11.48;8.82;;;;;;;8.66;56.44;99950.09;5048171;28;20029;-60
2022/03/31 03:01:28;;;;;;;9.98;8.40;;;;;;;8.64;56.26;99951.44;5042955;28;20039;-61
2022/03/31 03:03:55;;;;;;;10.40;9.20;;;;;;;8.56;55.97;99948.06;5049866;28;20045;-60
2022/03/31 03:06:26;;;;;;;10.90;9.20;;;;;;;8.58;56.63;99945.03;5048886;28;20530;-60
2022/03/31 03:08:53;;;;;;;12.18;9.32;;;;;;;8.52;56.97;99951.63;5043227;28;20376;-60
2022/03/31 03:11:18;;;;;;;8.52;7.50;;;;;;;8.41;57.16;99936.00;5042033;28;20370;-60
2022/03/31 03:13:45;;;;;;;8.10;6.43;;;;;;;8.44;56.82;99941.03;5032251;28;20076;-61
2022/03/31 03:16:10;;;;;;;7.60;6.90;;;;;;;8.34;56.46;99933.44;5042230;28;20025;-60
2022/03/31 03:18:36;;;;;;;9.88;6.80;;;;;;;8.35;57.15;99938.69;5036492;28;20037;-60
2022/03/31 03:21:04;;;;;;;8.15;6.93;;;;;;;8.38;56.94;99936.56;5038675;28;20124;-60
2022/03/31 03:23:29;;;;;;;7.03;6.43;;;;;;;8.34;56.18;99939.81;5035859;28;20494;-60
2022/03/31 03:25:54;;;;;;;6.95;6.30;;;;;;;8.25;57.07;99940.50;5049993;28;20037;-60
2022/03/31 03:28:20;;;;;;;6.20;5.60;;;;;;;8.28;56.65;99945.53;5042158;28;20368;-60
2022/03/31 03:30:47;;;;;;;6.53;5.63;;;;;;;8.22;56.62;99941.06;5033561;28;20030;-60
2022/03/31 03:33:13;;;;;;;7.28;5.13;;;;;;;8.23;56.44;99942.72;5047268;28;20106;-61
2022/03/31 03:35:38;;;;;;;5.43;4.95;;;;;;;8.22;56.64;99935.53;5049912;28;20108;-60
2022/03/31 03:38:03;;;;;;;5.88;5.15;;;;;;;8.07;56.87;99934.25;5046826;28;20504;-60
2022/03/31 03:40:31;;;;;;;4.80;4.35;;;;;;;8.07;57.05;99928.72;5049351;28;20036;-60
2022/03/31 03:42:57;;;;;;;4.45;4.05;;;;;;;8.06;56.25;99937.28;5046460;28;20059;-60
2022/03/31 03:45:22;;;;;;;4.53;3.85;;;;;;;7.96;56.87;99942.69;5031032;28;20464;-60
2022/03/31 03:47:48;;;;;;;3.65;3.35;;;;;;;7.96;56.58;99939.94;5032268;28;20053;-60
2022/03/31 03:50:14;;;;;;;3.45;3.15;;;;;;;7.94;56.51;99937.44;5033411;28;20469;-60
2022/03/31 03:52:39;;;;;;;3.15;2.90;;;;;;;7.93;56.67;99943.19;5033854;28;20020;-60
2022/03/31 03:55:05;;;;;;;3.17;2.90;;;;;;;7.89;56.09;99945.63;5036408;28;20480;-60
2022/03/31 03:57:31;;;;;;;2.75;2.55;;;;;;;7.73;55.62;99939.09;5035789;28;20045;-60
2022/03/31 03:59:56;;;;;;;2.78;2.58;;;;;;;7.74;56.28;99942.69;5050583;28;20064;-61
2022/03/31 04:02:26;;;;;;;3.47;3.17;;;;;;;7.72;55.97;99942.13;5033150;28;20032;-61
2022/03/31 04:04:52;;;;;;;3.22;2.92;;;;;;;7.67;55.78;99942.06;5030703;28;20488;-61
2022/03/31 04:07:17;;;;;;;3.80;3.15;;;;;;;7.60;56.88;99945.84;5032858;28;20028;-61
2022/03/31 04:09:42;;;;;;;3.20;3.00;;;;;;;7.60;56.43;99947.75;5052416;28;20126;-61
2022/03/31 04:12:08;;;;;;;3.13;2.92;;;;;;;7.56;56.50;99955.72;5050311;28;20025;-61
2022/03/31 04:14:33;;;;;;;3.25;3.03;;;;;;;7.56;56.35;99944.69;5050740;28;20033;-61
2022/03/31 04:16:58;;;;;;;3.42;3.13;;;;;;;7.46;57.78;99944.53;5038281;28;20038;-61
2022/03/31 04:19:23;;;;;;;3.55;3.20;;;;;;;7.44;56.93;99946.72;5048593;28;20051;-61
2022/03/31 04:21:49;;;;;;;3.40;3.10;;;;;;;7.33;58.30;99945.72;5050204;28;20067;-61
2022/03/31 04:24:14;;;;;;;3.15;2.85;;;;;;;7.36;57.34;99948.00;5050563;28;20025;-61
2022/03/31 04:26:39;;;;;;;5.80;3.28;;;;;;;7.33;57.96;99944.91;5053646;28;20029;-60
2022/03/31 04:29:08;;;;;;;3.58;3.10;;;;;;;7.32;57.58;99946.81;5054408;28;20392;-61
2022/03/31 04:31:43;;;;;;;6.47;3.30;;;;;;;7.33;57.79;99950.41;5054443;28;20468;-61
2022/03/31 04:34:10;;;;;;;3.00;2.80;;;;;;;7.26;57.80;99958.88;5046616;28;20029;-61
2022/03/31 04:36:35;;;;;;;3.05;2.75;;;;;;;7.26;57.95;99944.22;5047611;28;20076;-61
2022/03/31 04:39:01;;;;;;;2.70;2.50;;;;;;;7.25;58.22;99945.34;5055066;28;20388;-61
2022/03/31 04:41:26;;;;;;;2.78;2.58;;;;;;;7.18;58.42;99951.03;5053758;28;20025;-61
2022/03/31 04:43:54;;;;;;;2.17;2.08;;;;;;;7.12;58.11;99961.16;5050611;28;20109;-61
2022/03/31 04:46:20;;;;;;;2.38;2.20;;;;;;;7.14;57.52;99947.94;5054766;28;20025;-61
2022/03/31 04:48:45;;;;;;;2.40;2.20;;;;;;;7.11;57.81;99945.69;5046551;28;20048;-61
2022/03/31 04:51:10;;;;;;;2.10;2.00;;;;;;;7.06;58.11;99951.13;5048137;28;20028;-61
2022/03/31 04:53:36;;;;;;;2.47;2.28;;;;;;;7.03;58.52;99950.78;5047356;28;20431;-61
2022/03/31 04:56:01;;;;;;;2.65;2.03;;;;;;;7.08;58.38;99975.72;5050758;28;20383;-61
2022/03/31 04:58:26;;;;;;;2.05;1.95;;;;;;;6.95;58.12;99965.00;5047324;28;20029;-60
2022/03/31 05:00:52;;;;;;;2.08;1.88;;;;;;;6.96;58.84;99967.53;5036031;28;20068;-61
2022/03/31 05:03:18;;;;;;;3.38;2.20;;;;;;;6.86;58.38;99964.59;5041952;28;20087;-61
2022/03/31 05:05:43;;;;;;;2.42;2.03;;;;;;;6.65;59.04;99957.91;5054507;28;20032;-61
2022/03/31 05:08:08;;;;;;;2.47;2.28;;;;;;;6.78;58.96;99967.75;5039966;28;20416;-60
2022/03/31 05:10:34;;;;;;;2.33;2.17;;;;;;;6.74;58.43;99958.31;5036830;28;20487;-61
2022/03/31 05:13:00;;;;;;;2.25;2.05;;;;;;;6.77;58.56;99964.19;5042301;28;20017;-60
2022/03/31 05:15:25;;;;;;;2.40;2.20;;;;;;;6.79;59.42;99961.97;5049117;28;20035;-61
2022/03/31 05:17:50;;;;;;;2.47;2.17;;;;;;;6.74;58.87;99961.06;5046902;28;20538;-61
2022/03/31 05:20:16;;;;;;;2.90;2.60;;;;;;;6.81;58.82;99964.50;5044796;28;20365;-60
2022/03/31 05:22:44;;;;;;;2.65;2.45;;;;;;;6.76;58.94;99967.16;5037283;28;20033;-60
2022/03/31 05:25:10;;;;;;;2.40;2.20;;;;;;;6.74;58.33;99964.66;5049682;28;20028;-60
2022/03/31 05:27:46;;;;;;;2.33;2.13;;;;;;;6.80;58.53;99969.19;5046908;28;20395;-59
2022/03/31 05:30:13;;;;;;;2.00;1.90;;;;;;;6.74;58.56;99974.88;5046632;28;20029;-60
2022/03/31 05:32:39;;;;;;;2.10;1.90;;;;;;;6.69;58.10;99966.50;5047611;28;20032;-60
2022/03/31 05:35:06;;;;;;;2.55;2.15;;;;;;;6.66;58.35;99961.50;5039999;28;20029;-60
2022/03/31 05:37:33;;;;;;;2.10;1.90;;;;;;;6.61;58.21;99965.84;5043680;28;20036;-60
2022/03/31 05:39:58;;;;;;;2.15;2.05;;;;;;;6.57;58.18;99959.16;5040712;28;20419;-61
2022/03/31 05:42:23;;;;;;;2.10;2.00;;;;;;;6.57;58.22;99963.81;5048972;28;20116;-61
2022/03/31 05:44:49;;;;;;;2.10;2.00;;;;;;;6.47;58.13;99969.13;5042301;28;20041;-61
2022/03/31 05:47:14;;;;;;;2.55;1.90;;;;;;;6.42;58.27;99975.41;5034304;28;20069;-61
2022/03/31 05:49:39;;;;;;;2.75;1.85;;;;;;;6.42;58.57;99974.56;5045755;28;20687;-59
2022/03/31 05:52:05;;;;;;;2.10;2.00;;;;;;;6.39;58.49;99971.22;5045498;28;20029;-60
2022/03/31 05:54:30;;;;;;;2.70;2.00;;;;;;;6.31;58.43;99970.78;5038440;28;20032;-60
2022/03/31 05:56:56;;;;;;;2.22;2.00;;;;;;;6.26;59.39;99976.22;5043476;28;20025;-61
2022/03/31 05:59:22;;;;;;;2.00;1.90;;;;;;;6.25;58.75;99964.34;5047525;28;20040;-61
2022/03/31 06:01:47;;;;;;;2.90;2.08;;;;;;;6.22;59.10;99964.00;5047945;28;20037;-61
2022/03/31 06:04:16;;;;;;;2.00;1.90;;;;;;;6.20;59.58;99958.72;5040241;28;20072;-61
2022/03/31 06:06:41;;;;;;;2.13;2.00;;;;;;;6.28;59.32;99963.00;5047529;28;20591;-61
2022/03/31 06:09:07;;;;;;;1.90;1.80;;;;;;;6.26;59.60;99962.44;5047277;28;20127;-60
2022/03/31 06:11:32;;;;;;;2.13;2.03;;;;;;;6.31;59.24;99959.75;5046331;28;20060;-60
2022/03/31 06:13:57;;;;;;;2.17;2.08;;;;;;;6.21;59.44;99960.41;5043478;28;20033;-61
2022/03/31 06:16:23;;;;;;;2.40;1.92;;;;;;;6.14;59.77;99960.56;5041688;28;20404;-61
2022/03/31 06:18:48;;;;;;;2.20;2.00;;;;;;;6.20;59.59;99964.22;5033249;28;20029;-61
2022/03/31 06:21:13;;;;;;;2.20;1.70;;;;;;;6.26;59.70;99954.16;5040144;28;20029;-62
2022/03/31 06:23:38;;;;;;;1.98;1.88;;;;;;;6.27;59.54;99962.16;5041795;28;20025;-61
2022/03/31 06:26:04;;;;;;;2.03;1.92;;;;;;;6.27;59.16;99958.56;5039887;28;20060;-61
2022/03/31 06:28:31;;;;;;;2.00;1.90;;;;;;;6.27;59.52;99970.44;5045292;28;20090;-60
2022/03/31 06:30:56;;;;;;;2.10;1.90;;;;;;;6.23;60.71;99968.41;5045291;28;20060;-61
2022/03/31 06:33:22;;;;;;;2.33;2.10;;;;;;;6.24;59.86;99975.59;5041497;28;20083;-60
2022/03/31 06:35:49;;;;;;;2.25;2.08;;;;;;;6.20;59.85;99972.50;5040894;28;20229;-61
2022/03/31 06:38:15;;;;;;;2.30;2.10;;;;;;;6.22;59.68;99969.50;5047077;28;20025;-60
2022/03/31 06:40:41;;;;;;;3.55;2.30;;;;;;;6.17;59.88;99978.53;5048737;28;20037;-61
2022/03/31 06:43:07;;;;;;;2.75;2.30;;;;;;;6.15;60.23;99981.50;5050106;28;20059;-61
2022/03/31 06:45:34;;;;;;;2.70;2.50;;;;;;;6.11;60.57;99979.50;5039650;28;20495;-61
2022/03/31 06:48:01;;;;;;;5.80;2.75;;;;;;;6.15;60.03;99973.25;5032237;28;20055;-61
2022/03/31 06:50:26;;;;;;;3.72;2.70;;;;;;;6.20;60.61;99968.91;5051123;28;20044;-61
2022/03/31 06:52:51;;;;;;;2.80;2.60;;;;;;;6.13;60.36;99977.31;5040541;28;20407;-61
2022/03/31 06:55:17;;;;;;;2.60;2.40;;;;;;;6.15;60.31;99975.16;5042306;28;20021;-61
2022/03/31 06:57:42;;;;;;;2.88;2.65;;;;;;;6.14;60.06;99979.00;5046094;28;20044;-61
2022/03/31 07:00:08;;;;;;;2.53;2.35;;;;;;;6.13;60.88;99978.16;5049821;28;20037;-60
2022/03/31 07:02:34;;;;;;;2.90;2.70;;;;;;;6.14;60.42;99976.25;5045284;28;20097;-60
2022/03/31 07:04:59;;;;;;;2.53;2.33;;;;;;;6.13;60.77;99980.06;5029966;28;20479;-60
2022/03/31 07:07:24;;;;;;;3.10;2.80;;;;;;;6.10;60.47;99975.91;5029653;28;20029;-60
2022/03/31 07:09:57;;;;;;;3.00;2.80;;;;;;;6.09;60.02;99971.47;5029582;28;20104;-61
2022/03/31 07:12:22;;;;;;;;;;;;;;;6.33;58.72;99972.22;5030150;28;20044;-60
2022/03/31 07:14:47;;;;;;;3.10;2.80;;;;;;;6.19;60.35;99964.50;5034796;28;19925;-60
2022/03/31 07:17:13;;;;;;;2.80;2.60;;;;;;;6.14;60.17;99967.97;5021490;28;20049;-61
2022/03/31 07:19:38;;;;;;;2.95;2.75;;;;;;;6.10;60.99;99970.38;5030505;28;20029;-61
2022/03/31 07:22:06;;;;;;;2.80;2.60;;;;;;;6.16;59.95;99976.81;5027911;28;20457;-61
2022/03/31 07:24:32;;;;;;;3.40;2.78;;;;;;;6.13;60.62;99969.91;5030721;28;20021;-61
2022/03/31 07:26:57;;;;;;;3.00;2.80;;;;;;;6.12;60.88;99975.66;5031398;28;20365;-61
2022/03/31 07:29:25;;;;;;;3.40;3.15;;;;;;;6.15;60.49;99962.22;5028909;28;20443;-61
2022/03/31 07:31:51;;;;;;;3.50;3.28;;;;;;;6.17;60.51;99966.63;5025383;28;20036;-60
2022/03/31 07:34:16;;;;;;;3.83;3.10;;;;;;;6.12;60.43;99970.97;5029595;28;20013;-62
2022/03/31 07:36:41;;;;;;;3.28;3.08;;;;;;;6.08;60.90;99969.78;5025073;28;20044;-61
2022/03/31 07:39:08;;;;;;;3.15;2.95;;;;;;;6.05;60.90;99973.06;5030921;28;20025;-61
2022/03/31 07:41:33;;;;;;;3.63;3.38;;;;;;;6.00;61.83;99972.09;5028599;28;20022;-62
2022/03/31 07:43:58;;;;;;;3.30;3.10;;;;;;;6.07;60.89;99976.38;5028358;28;20854;-63
2022/03/31 07:46:24;;;;;;;3.20;3.00;;;;;;;6.05;61.43;99981.31;5030459;28;20082;-63
2022/03/31 07:48:52;;;;;;;3.20;3.00;;;;;;;6.09;61.09;99979.75;5028879;28;20038;-62
2022/03/31 07:51:17;;;;;;;3.35;3.13;;;;;;;6.00;61.57;99964.66;5025190;28;20033;-62
2022/03/31 07:53:43;;;;;;;3.47;3.20;;;;;;;6.02;61.58;99973.53;5026499;28;20524;-62
2022/03/31 07:56:08;;;;;;;3.08;2.88;;;;;;;6.05;61.56;99972.19;5028625;28;20037;-63
2022/03/31 07:58:34;;;;;;;2.92;2.67;;;;;;;6.08;61.82;99983.56;5027591;28;20385;-63
2022/03/31 08:00:59;;;;;;;2.80;2.60;;;;;;;6.02;61.78;99975.47;5028371;28;20060;-61
2022/03/31 08:03:25;;;;;;;2.90;2.70;;;;;;;5.98;62.23;99977.03;5038053;28;20059;-61
2022/03/31 08:05:51;;;;;;;2.67;2.47;;;;;;;6.02;61.94;99970.78;5050125;28;20044;-61
2022/03/31 08:08:17;;;;;;;2.78;2.58;;;;;;;6.00;62.31;99964.66;5050514;28;20104;-62
2022/03/31 08:10:42;;;;;;;2.53;2.30;;;;;;;6.00;62.21;99964.66;5046661;28;20140;-62
2022/03/31 08:13:08;;;;;;;4.15;2.58;;;;;;;5.99;61.89;99974.03;5048026;28;20500;-60
2022/03/31 08:15:34;;;;;;;2.55;2.35;;;;;;;6.03;62.04;99964.19;5050184;28;20025;-61
2022/03/31 08:18:00;;;;;;;2.30;2.20;;;;;;;6.08;62.35;99966.19;5049287;28;20532;-61
2022/03/31 08:20:26;;;;;;;2.63;2.42;;;;;;;6.05;62.22;99959.28;5050663;28;20116;-62
2022/03/31 08:22:51;;;;;;;2.97;2.70;;;;;;;6.07;62.07;99962.59;5050472;28;20111;-61
2022/03/31 08:25:17;;;;;;;2.45;2.33;;;;;;;6.03;62.54;99963.34;5040506;28;20107;-62
2022/03/31 08:27:44;;;;;;;3.92;2.50;;;;;;;6.08;62.42;99956.00;5031625;28;20057;-62
2022/03/31 08:30:16;;;;;;;2.88;2.40;;;;;;;6.09;62.44;99957.72;5034480;28;20040;-61
2022/03/31 08:32:43;;;;;;;2.53;2.33;;;;;;;6.08;62.61;99963.44;5045446;28;20044;-62
2022/03/31 08:35:10;;;;;;;2.67;2.47;;;;;;;6.14;62.58;99966.06;5048570;28;20472;-62
2022/03/31 08:37:36;;;;;;;4.15;2.70;;;;;;;6.15;62.14;99962.22;5046986;28;20036;-61
2022/03/31 08:40:06;;;;;;;3.45;3.15;;;;;;;6.12;62.73;99962.69;5030066;28;20488;-62
2022/03/31 08:42:32;;;;;;;3.10;2.90;;;;;;;6.14;62.58;99960.56;5045951;28;20120;-61
2022/03/31 08:44:59;;;;;;;3.13;2.92;;;;;;;6.11;62.48;99958.28;5042459;28;20167;-62
2022/03/31 08:47:28;;;;;;;2.92;2.72;;;;;;;6.13;62.13;99969.03;5029852;28;20496;-62
2022/03/31 08:49:55;;;;;;;3.97;3.58;;;;;;;6.13;62.41;99975.41;5037179;28;20043;-61
2022/03/31 08:52:24;;;;;;;4.25;3.80;;;;;;;6.12;62.87;99967.38;5030819;28;20029;-60
2022/03/31 08:54:50;;;;;;;5.22;3.53;;;;;;;6.10;62.55;99969.56;5029629;28;20032;-60
2022/03/31 08:57:17;;;;;;;3.30;3.10;;;;;;;6.06;63.12;99974.72;5042679;28;20391;-60
2022/03/31 08:59:43;;;;;;;3.40;3.10;;;;;;;6.06;63.20;99982.16;5049172;28;20494;-61
2022/03/31 09:02:21;;;;;;;3.13;2.92;;;;;;;6.08;63.36;99977.22;5048097;28;20029;-60
2022/03/31 09:04:46;;;;;;;2.95;2.72;;;;;;;6.11;62.54;99974.81;5040116;28;20044;-60
2022/03/31 09:07:17;;;;;;;2.97;2.78;;;;;;;6.17;62.54;99978.53;5049389;28;20033;-61
2022/03/31 09:09:51;;;;;;;2.95;2.75;;;;;;;6.16;63.06;99979.56;5050812;28;20040;-60
2022/03/31 09:12:17;;;;;;;3.22;2.92;;;;;;;6.21;62.77;99979.69;5065773;28;20052;-60
2022/03/31 09:14:43;;;;;;;3.25;3.05;;;;;;;6.24;62.83;99983.88;5033576;28;20476;-60
2022/03/31 09:17:11;;;;;;;3.53;3.22;;;;;;;6.20;62.45;99979.94;5052862;28;20037;-61
2022/03/31 09:19:37;;;;;;;3.63;3.30;;;;;;;6.23;63.49;99979.44;5053219;28;20025;-61
2022/03/31 09:22:02;;;;;;;3.00;2.80;;;;;;;6.22;62.76;99972.28;5052862;28;20040;-61
2022/03/31 09:24:29;;;;;;;3.63;3.33;;;;;;;6.19;63.00;99975.50;5052944;28;20037;-61
2022/03/31 09:26:56;;;;;;;3.35;2.92;;;;;;;6.20;62.33;99974.41;5053390;28;20427;-61
2022/03/31 09:29:23;;;;;;;4.38;3.00;;;;;;;6.20;63.25;99978.00;5052733;28;20082;-61
2022/03/31 09:31:51;;;;;;;3.15;2.95;;;;;;;6.19;62.68;99984.59;5052628;28;20033;-61
2022/03/31 09:34:17;;;;;;;3.30;3.00;;;;;;;6.20;62.56;99985.44;5053599;28;20369;-61
2022/03/31 09:36:48;;;;;;;3.50;3.08;;;;;;;6.14;63.41;99988.09;5052274;28;20094;-61
2022/03/31 09:39:16;;;;;;;3.20;2.90;;;;;;;6.20;63.06;99980.75;5046849;28;20028;-61
2022/03/31 09:41:43;;;;;;;4.00;3.58;;;;;;;6.14;63.96;99984.53;5044014;28;20030;-61
2022/03/31 09:44:12;;;;;;;3.50;3.20;;;;;;;6.19;64.17;99989.28;5036541;28;20029;-61
2022/03/31 09:46:39;;;;;;;3.88;3.10;;;;;;;6.17;63.72;99981.28;5045936;28;20037;-60
2022/03/31 09:49:19;;;;;;;3.30;3.10;;;;;;;6.23;63.12;99982.19;5039118;28;20542;-61
2022/03/31 09:51:59;;;;;;;3.75;3.45;;;;;;;6.22;63.34;99983.28;5038869;28;20564;-61
2022/03/31 09:54:27;;;;;;;3.40;3.00;;;;;;;6.25;62.75;99982.78;5033309;28;20037;-62
2022/03/31 09:56:54;;;;;;;3.63;3.33;;;;;;;6.28;63.41;99982.28;5047632;28;20025;-60
2022/03/31 09:59:20;;;;;;;5.53;3.63;;;;;;;6.26;63.88;99981.72;5050660;28;20036;-61
2022/03/31 10:01:46;;;;;;;2.40;2.10;;;;;;;6.86;70.87;99976.47;5036716;28;20029;-61
2022/03/31 10:04:13;;;;;;;3.35;3.10;;;;;;;6.67;63.11;99982.47;5043309;28;20583;-61
2022/03/31 10:06:40;;;;;;;3.33;3.03;;;;;;;6.59;62.90;99978.19;5032536;28;20034;-62
2022/03/31 10:09:10;;;;;;;3.40;2.97;;;;;;;6.53;63.09;99974.50;5050545;28;20029;-61
2022/03/31 10:11:44;;;;;;;3.67;3.20;;;;;;;6.47;63.22;99969.13;5047618;28;20029;-62
2022/03/31 10:14:21;;;;;;;3.00;2.80;;;;;;;6.45;63.31;99976.84;5044153;28;20124;-62
2022/03/31 10:16:52;;;;;;;3.63;3.33;;;;;;;6.37;63.65;99973.41;5034464;28;20099;-62
2022/03/31 10:19:32;;;;;;;3.60;3.30;;;;;;;6.40;64.33;99974.78;5038385;28;20711;-62
2022/03/31 10:21:59;;;;;;;5.20;3.42;;;;;;;6.36;63.58;99962.59;5041772;28;20055;-62
2022/03/31 10:27:13;;;;;;;3.10;2.90;;;;;;;6.34;63.53;99973.88;5033048;28;20053;-62
2022/03/31 10:29:42;;;;;;;3.40;3.10;;;;;;;6.40;64.22;99972.03;5041945;28;20032;-61
2022/03/31 10:32:14;;;;;;;3.60;3.30;;;;;;;6.38;64.49;99977.81;5033419;28;20029;-62
2022/03/31 10:34:44;;;;;;;3.65;3.33;;;;;;;6.44;63.43;99983.41;5033192;28;20381;-61
2022/03/31 10:37:10;;;;;;;3.13;2.92;;;;;;;6.40;64.02;99980.31;5050239;28;20507;-60
2022/03/31 10:39:36;;;;;;;4.47;3.20;;;;;;;6.39;63.78;99978.66;5041256;28;20480;-61
2022/03/31 10:42:05;;;;;;;3.47;3.17;;;;;;;6.43;63.70;99976.25;5062819;28;20021;-61
2022/03/31 10:44:31;;;;;;;3.67;3.38;;;;;;;6.39;63.74;99970.38;5047225;28;20465;-61
2022/03/31 10:47:07;;;;;;;3.38;3.08;;;;;;;6.43;63.84;99970.72;5034660;28;20027;-62
2022/03/31 10:49:34;;;;;;;3.85;3.45;;;;;;;6.46;64.45;99973.00;5040859;28;20111;-62
2022/03/31 10:52:19;;;;;;;3.85;3.55;;;;;;;6.47;63.61;99975.50;5051439;28;20024;-61
2022/03/31 10:54:45;;;;;;;5.35;3.50;;;;;;;6.49;64.12;99976.09;5051602;28;20408;-61
2022/03/31 10:57:13;;;;;;;3.70;3.40;;;;;;;6.50;64.26;99963.97;5034759;28;20495;-61
2022/03/31 10:59:39;;;;;;;3.80;3.45;;;;;;;6.50;64.15;99960.38;5047683;28;20048;-61
2022/03/31 11:02:16;;;;;;;3.55;3.25;;;;;;;6.54;64.13;99964.31;5032532;28;20032;-61
2022/03/31 11:05:03;;;;;;;3.17;2.88;;;;;;;6.55;62.79;99964.06;5039318;28;20049;-60
2022/03/31 11:07:31;;;;;;;3.28;3.00;;;;;;;6.53;63.41;99959.91;5041348;28;20044;-61
2022/03/31 11:10:03;;;;;;;3.90;3.53;;;;;;;6.56;63.52;99959.38;5041571;28;20479;-60
2022/03/31 11:12:30;;;;;;;3.80;3.50;;;;;;;6.53;63.74;99965.41;5037613;28;20540;-61
2022/03/31 11:15:00;;;;;;;4.15;3.45;;;;;;;6.52;64.18;99960.94;5044939;28;20059;-60
2022/03/31 11:17:30;;;;;;;3.40;3.10;;;;;;;6.50;64.23;99960.38;5038646;28;20028;-61
2022/03/31 11:19:57;;;;;;;3.17;2.97;;;;;;;6.51;64.16;99962.88;5040396;28;20526;-63
2022/03/31 11:22:26;;;;;;;3.80;3.50;;;;;;;6.54;63.69;99953.28;5039079;28;20080;-62
2022/03/31 11:24:54;;;;;;;3.67;3.40;;;;;;;6.58;64.33;99952.53;5048090;28;20116;-62
2022/03/31 11:27:49;;;;;;;3.65;3.35;;;;;;;6.64;63.91;99943.28;5041912;28;20029;-63
2022/03/31 11:30:18;;;;;;;3.63;3.33;;;;;;;6.61;64.79;99945.69;5029196;28;20044;-62
2022/03/31 11:32:44;;;;;;;3.75;3.20;;;;;;;6.58;64.34;99941.50;5043854;28;20091;-62
2022/03/31 11:35:15;;;;;;;3.78;3.45;;;;;;;6.60;64.67;99939.34;5039130;28;20053;-63
2022/03/31 11:37:54;;;;;;;3.50;3.20;;;;;;;6.61;65.23;99935.50;5037483;28;20039;-63
2022/03/31 11:40:31;;;;;;;3.60;3.30;;;;;;;6.65;64.77;99938.59;5050426;28;20037;-63
2022/03/31 11:42:59;;;;;;;3.40;3.10;;;;;;;6.64;64.84;99935.00;5049753;28;20025;-63
2022/03/31 11:45:44;;;;;;;3.85;3.55;;;;;;;6.64;65.08;99935.00;5050288;28;20033;-63